sensor_id;sensor_type;location;lat;lon;timestamp;pressure;altitude;pressure_sealevel;temperature;humidity
38033;BME280;23841;48.524;1.342;2023-04-24T00:00:20;98400.41;;;16.35;50.26
38033;BME280;23841;48.524;1.342;2023-04-24T00:02:46;98405.91;;;16.32;50.29
38033;BME280;23841;48.524;1.342;2023-04-24T00:05:13;98405.84;;;16.34;50.19
38033;BME280;23841;48.524;1.342;2023-04-24T00:07:43;98407.66;;;16.33;50.19
38033;BME280;23841;48.524;1.342;2023-04-24T00:10:09;98418.38;;;16.33;50.17
38033;BME280;23841;48.524;1.342;2023-04-24T00:12:35;98413.09;;;16.32;50.14
38033;BME280;23841;48.524;1.342;2023-04-24T00:15:01;98406.03;;;16.31;50.03
38033;BME280;23841;48.524;1.342;2023-04-24T00:17:27;98412.41;;;16.28;50.06
38033;BME280;23841;48.524;1.342;2023-04-24T00:19:52;98405.34;;;16.27;50.16
38033;BME280;23841;48.524;1.342;2023-04-24T00:22:24;98408.97;;;16.26;50.09
38033;BME280;23841;48.524;1.342;2023-04-24T00:24:49;98405.44;;;16.26;50.08
38033;BME280;23841;48.524;1.342;2023-04-24T00:27:15;98408.19;;;16.24;50.01
38033;BME280;23841;48.524;1.342;2023-04-24T00:29:40;98413.56;;;16.24;50.08
38033;BME280;23841;48.524;1.342;2023-04-24T00:32:05;98409.06;;;16.25;50.05
38033;BME280;23841;48.524;1.342;2023-04-24T00:34:31;98419.97;;;16.21;49.93
38033;BME280;23841;48.524;1.342;2023-04-24T00:36:57;98414.63;;;16.21;50.12
38033;BME280;23841;48.524;1.342;2023-04-24T00:39:23;98417.31;;;16.21;49.96
38033;BME280;23841;48.524;1.342;2023-04-24T00:41:49;98418.34;;;16.19;50.06
38033;BME280;23841;48.524;1.342;2023-04-24T00:44:16;98425.44;;;16.20;49.94
38033;BME280;23841;48.524;1.342;2023-04-24T00:46:42;98419.38;;;16.16;49.92
38033;BME280;23841;48.524;1.342;2023-04-24T00:49:08;98430.94;;;16.17;50.03
38033;BME280;23841;48.524;1.342;2023-04-24T00:51:34;98429.25;;;16.16;49.93
38033;BME280;23841;48.524;1.342;2023-04-24T00:54:00;98434.59;;;16.16;49.91
38033;BME280;23841;48.524;1.342;2023-04-24T00:56:26;98441.75;;;16.15;49.88
38033;BME280;23841;48.524;1.342;2023-04-24T00:58:52;98441.84;;;16.14;49.93
38033;BME280;23841;48.524;1.342;2023-04-24T01:01:22;98451.72;;;16.13;50.04
38033;BME280;23841;48.524;1.342;2023-04-24T01:03:49;98442.88;;;16.11;49.91
38033;BME280;23841;48.524;1.342;2023-04-24T01:06:16;98448.25;;;16.11;50.07
38033;BME280;23841;48.524;1.342;2023-04-24T01:08:43;98452.66;;;16.12;50.02
38033;BME280;23841;48.524;1.342;2023-04-24T01:11:11;98453.59;;;16.11;49.86
38033;BME280;23841;48.524;1.342;2023-04-24T01:13:36;98450.16;;;16.09;49.90
38033;BME280;23841;48.524;1.342;2023-04-24T01:16:02;98452.94;;;16.08;49.88
38033;BME280;23841;48.524;1.342;2023-04-24T01:18:27;98448.44;;;16.08;49.95
38033;BME280;23841;48.524;1.342;2023-04-24T01:20:57;98452.06;;;16.07;49.80
38033;BME280;23841;48.524;1.342;2023-04-24T01:23:23;98460.19;;;16.06;49.78
38033;BME280;23841;48.524;1.342;2023-04-24T01:25:49;98454.81;;;16.06;49.79
38033;BME280;23841;48.524;1.342;2023-04-24T01:28:16;98449.47;;;16.06;49.91
38033;BME280;23841;48.524;1.342;2023-04-24T01:30:42;98457.59;;;16.04;49.96
38033;BME280;23841;48.524;1.342;2023-04-24T01:33:07;98455.00;;;16.02;49.80
38033;BME280;23841;48.524;1.342;2023-04-24T01:35:33;98457.69;;;16.02;49.80
38033;BME280;23841;48.524;1.342;2023-04-24T01:37:59;98461.31;;;16.01;49.99
38033;BME280;23841;48.524;1.342;2023-04-24T01:40:24;98456.88;;;16.00;49.90
38033;BME280;23841;48.524;1.342;2023-04-24T01:42:50;98456.88;;;16.00;49.70
38033;BME280;23841;48.524;1.342;2023-04-24T01:45:16;98464.16;;;15.98;49.79
38033;BME280;23841;48.524;1.342;2023-04-24T01:47:41;98461.50;;;15.98;49.81
38033;BME280;23841;48.524;1.342;2023-04-24T01:50:07;98459.75;;;15.97;49.66
38033;BME280;23841;48.524;1.342;2023-04-24T01:52:33;98460.69;;;15.96;49.86
38033;BME280;23841;48.524;1.342;2023-04-24T01:55:00;98463.38;;;15.96;49.79
38033;BME280;23841;48.524;1.342;2023-04-24T01:57:26;98456.31;;;15.95;49.71
38033;BME280;23841;48.524;1.342;2023-04-24T01:59:53;98466.16;;;15.95;49.80
38033;BME280;23841;48.524;1.342;2023-04-24T02:02:19;98459.16;;;15.92;49.68
38033;BME280;23841;48.524;1.342;2023-04-24T02:04:46;98464.53;;;15.92;49.68
38033;BME280;23841;48.524;1.342;2023-04-24T02:07:11;98466.31;;;15.92;49.58
38033;BME280;23841;48.524;1.342;2023-04-24T02:09:37;98472.63;;;15.91;49.69
38033;BME280;23841;48.524;1.342;2023-04-24T02:12:02;98475.38;;;15.89;49.70
38033;BME280;23841;48.524;1.342;2023-04-24T02:14:28;98473.69;;;15.88;49.78
38033;BME280;23841;48.524;1.342;2023-04-24T02:16:54;98479.91;;;15.89;49.62
38033;BME280;23841;48.524;1.342;2023-04-24T02:19:20;98472.81;;;15.87;49.70
38033;BME280;23841;48.524;1.342;2023-04-24T02:21:45;98479.09;;;15.86;49.73
38033;BME280;23841;48.524;1.342;2023-04-24T02:24:10;98480.94;;;15.86;49.66
38033;BME280;23841;48.524;1.342;2023-04-24T02:26:36;98488.19;;;15.84;49.66
38033;BME280;23841;48.524;1.342;2023-04-24T02:29:01;98486.38;;;15.84;49.72
38033;BME280;23841;48.524;1.342;2023-04-24T02:31:27;98490.00;;;15.83;49.69
38033;BME280;23841;48.524;1.342;2023-04-24T02:33:52;98496.31;;;15.82;49.67
38033;BME280;23841;48.524;1.342;2023-04-24T02:36:17;98498.03;;;15.83;49.89
38033;BME280;23841;48.524;1.342;2023-04-24T02:38:43;98497.25;;;15.81;49.77
38033;BME280;23841;48.524;1.342;2023-04-24T02:41:08;98493.69;;;15.81;49.68
38033;BME280;23841;48.524;1.342;2023-04-24T02:43:34;98491.03;;;15.81;49.81
38033;BME280;23841;48.524;1.342;2023-04-24T02:45:59;98495.59;;;15.79;49.79
38033;BME280;23841;48.524;1.342;2023-04-24T02:48:25;98494.78;;;15.77;49.68
38033;BME280;23841;48.524;1.342;2023-04-24T02:50:51;98504.56;;;15.78;49.58
38033;BME280;23841;48.524;1.342;2023-04-24T02:53:16;98509.06;;;15.77;49.66
38033;BME280;23841;48.524;1.342;2023-04-24T02:55:42;98508.19;;;15.77;49.69
38033;BME280;23841;48.524;1.342;2023-04-24T02:58:07;98513.63;;;15.75;49.76
38033;BME280;23841;48.524;1.342;2023-04-24T03:00:33;98515.44;;;15.75;49.82
38033;BME280;23841;48.524;1.342;2023-04-24T03:02:58;98510.09;;;15.75;49.88
38033;BME280;23841;48.524;1.342;2023-04-24T03:05:23;98520.81;;;15.75;49.54
38033;BME280;23841;48.524;1.342;2023-04-24T03:07:49;98518.31;;;15.72;49.66
38033;BME280;23841;48.524;1.342;2023-04-24T03:10:15;98516.47;;;15.72;49.74
38033;BME280;23841;48.524;1.342;2023-04-24T03:12:40;98515.63;;;15.72;49.82
38033;BME280;23841;48.524;1.342;2023-04-24T03:15:06;98530.81;;;15.71;49.70
38033;BME280;23841;48.524;1.342;2023-04-24T03:17:32;98517.50;;;15.69;49.87
38033;BME280;23841;48.524;1.342;2023-04-24T03:19:57;98522.94;;;15.68;49.76
38033;BME280;23841;48.524;1.342;2023-04-24T03:22:23;98528.31;;;15.68;49.72
38033;BME280;23841;48.524;1.342;2023-04-24T03:24:48;98521.22;;;15.67;49.76
38033;BME280;23841;48.524;1.342;2023-04-24T03:27:14;98529.25;;;15.67;49.81
38033;BME280;23841;48.524;1.342;2023-04-24T03:29:39;98539.09;;;15.66;49.70
38033;BME280;23841;48.524;1.342;2023-04-24T03:32:04;98533.84;;;15.65;49.80
38033;BME280;23841;48.524;1.342;2023-04-24T03:34:30;98541.88;;;15.65;49.72
38033;BME280;23841;48.524;1.342;2023-04-24T03:36:55;98528.56;;;15.63;49.80
38033;BME280;23841;48.524;1.342;2023-04-24T03:39:20;98533.03;;;15.63;49.83
38033;BME280;23841;48.524;1.342;2023-04-24T03:41:46;98536.69;;;15.62;49.74
38033;BME280;23841;48.524;1.342;2023-04-24T03:44:11;98538.38;;;15.63;49.63
38033;BME280;23841;48.524;1.342;2023-04-24T03:46:37;98547.38;;;15.62;49.79
38033;BME280;23841;48.524;1.342;2023-04-24T03:49:02;98539.44;;;15.60;49.78
38033;BME280;23841;48.524;1.342;2023-04-24T03:51:28;98543.06;;;15.59;49.82
38033;BME280;23841;48.524;1.342;2023-04-24T03:53:55;98543.06;;;15.59;49.83
38033;BME280;23841;48.524;1.342;2023-04-24T03:56:20;98542.19;;;15.59;50.00
38033;BME280;23841;48.524;1.342;2023-04-24T03:58:46;98538.66;;;15.58;49.94
38033;BME280;23841;48.524;1.342;2023-04-24T04:01:11;98539.69;;;15.56;49.65
38033;BME280;23841;48.524;1.342;2023-04-24T04:03:37;98538.75;;;15.57;49.67
38033;BME280;23841;48.524;1.342;2023-04-24T04:06:02;98537.00;;;15.56;49.80
38033;BME280;23841;48.524;1.342;2023-04-24T04:08:28;98542.44;;;15.54;49.86
38033;BME280;23841;48.524;1.342;2023-04-24T04:10:54;98537.19;;;15.52;49.67
38033;BME280;23841;48.524;1.342;2023-04-24T04:13:20;98539.84;;;15.52;49.68
38033;BME280;23841;48.524;1.342;2023-04-24T04:15:45;98542.53;;;15.52;49.71
38033;BME280;23841;48.524;1.342;2023-04-24T04:18:10;98549.63;;;15.53;49.78
38033;BME280;23841;48.524;1.342;2023-04-24T04:20:36;98541.69;;;15.52;49.82
38033;BME280;23841;48.524;1.342;2023-04-24T04:23:02;98539.94;;;15.51;49.73
38033;BME280;23841;48.524;1.342;2023-04-24T04:25:28;98542.69;;;15.49;49.81
38033;BME280;23841;48.524;1.342;2023-04-24T04:27:54;98544.56;;;15.47;49.77
38033;BME280;23841;48.524;1.342;2023-04-24T04:30:20;98543.72;;;15.47;49.74
38033;BME280;23841;48.524;1.342;2023-04-24T04:32:46;98550.81;;;15.48;49.79
38033;BME280;23841;48.524;1.342;2023-04-24T04:35:11;98552.59;;;15.47;49.81
38033;BME280;23841;48.524;1.342;2023-04-24T04:37:37;98557.97;;;15.47;49.69
38033;BME280;23841;48.524;1.342;2023-04-24T04:40:03;98568.75;;;15.46;49.71
38033;BME280;23841;48.524;1.342;2023-04-24T04:42:32;98561.66;;;15.45;49.82
38033;BME280;23841;48.524;1.342;2023-04-24T04:44:59;98561.75;;;15.43;49.68
38033;BME280;23841;48.524;1.342;2023-04-24T04:47:26;98572.44;;;15.43;49.70
38033;BME280;23841;48.524;1.342;2023-04-24T04:49:52;98572.44;;;15.43;49.73
38033;BME280;23841;48.524;1.342;2023-04-24T04:52:18;98571.59;;;15.43;49.77
38033;BME280;23841;48.524;1.342;2023-04-24T04:54:43;98579.63;;;15.43;49.90
38033;BME280;23841;48.524;1.342;2023-04-24T04:57:09;98579.72;;;15.41;49.71
38033;BME280;23841;48.524;1.342;2023-04-24T04:59:35;98583.41;;;15.39;49.67
38033;BME280;23841;48.524;1.342;2023-04-24T05:02:00;98589.63;;;15.39;49.65
38033;BME280;23841;48.524;1.342;2023-04-24T05:04:26;98596.78;;;15.39;50.01
38033;BME280;23841;48.524;1.342;2023-04-24T05:06:51;98607.50;;;15.39;49.63
38033;BME280;23841;48.524;1.342;2023-04-24T05:09:17;98617.34;;;15.38;49.57
38033;BME280;23841;48.524;1.342;2023-04-24T05:11:42;98611.09;;;15.38;49.69
38033;BME280;23841;48.524;1.342;2023-04-24T05:14:08;98614.75;;;15.36;49.64
38033;BME280;23841;48.524;1.342;2023-04-24T05:16:34;98627.25;;;15.36;49.85
38033;BME280;23841;48.524;1.342;2023-04-24T05:18:59;98637.09;;;15.35;49.73
38033;BME280;23841;48.524;1.342;2023-04-24T05:21:25;98636.28;;;15.33;49.77
38033;BME280;23841;48.524;1.342;2023-04-24T05:23:52;98633.63;;;15.33;49.67
38033;BME280;23841;48.524;1.342;2023-04-24T05:26:17;98637.25;;;15.32;49.70
38033;BME280;23841;48.524;1.342;2023-04-24T05:28:43;98633.78;;;15.30;49.71
38033;BME280;23841;48.524;1.342;2023-04-24T05:31:08;98645.28;;;15.32;49.92
38033;BME280;23841;48.524;1.342;2023-04-24T05:33:33;98650.69;;;15.31;49.70
38033;BME280;23841;48.524;1.342;2023-04-24T05:36:00;98643.72;;;15.28;49.65
38033;BME280;23841;48.524;1.342;2023-04-24T05:38:25;98652.59;;;15.29;49.74
38033;BME280;23841;48.524;1.342;2023-04-24T05:40:51;98656.22;;;15.28;49.72
38033;BME280;23841;48.524;1.342;2023-04-24T05:43:16;98668.66;;;15.29;49.69
38033;BME280;23841;48.524;1.342;2023-04-24T05:45:42;98667.78;;;15.28;49.71
38033;BME280;23841;48.524;1.342;2023-04-24T05:48:07;98667.78;;;15.28;49.87
38033;BME280;23841;48.524;1.342;2023-04-24T05:50:32;98675.00;;;15.26;49.81
38033;BME280;23841;48.524;1.342;2023-04-24T05:52:58;98662.66;;;15.24;49.85
38033;BME280;23841;48.524;1.342;2023-04-24T05:55:24;98670.69;;;15.24;49.77
38033;BME280;23841;48.524;1.342;2023-04-24T05:57:50;98676.91;;;15.24;49.91
38033;BME280;23841;48.524;1.342;2023-04-24T06:00:16;98682.28;;;15.24;50.00
38033;BME280;23841;48.524;1.342;2023-04-24T06:02:43;98675.19;;;15.23;49.91
38033;BME280;23841;48.524;1.342;2023-04-24T06:05:08;98682.34;;;15.23;49.98
38033;BME280;23841;48.524;1.342;2023-04-24T06:07:34;98693.06;;;15.23;49.68
38033;BME280;23841;48.524;1.342;2023-04-24T06:10:00;98699.34;;;15.22;49.98
38033;BME280;23841;48.524;1.342;2023-04-24T06:12:26;98697.69;;;15.19;49.93
38033;BME280;23841;48.524;1.342;2023-04-24T06:14:52;98703.81;;;15.21;49.79
38033;BME280;23841;48.524;1.342;2023-04-24T06:17:18;98709.22;;;15.19;49.99
38033;BME280;23841;48.524;1.342;2023-04-24T06:19:43;98707.44;;;15.20;49.85
38033;BME280;23841;48.524;1.342;2023-04-24T06:22:09;98712.88;;;15.18;50.01
38033;BME280;23841;48.524;1.342;2023-04-24T06:24:34;98709.31;;;15.18;50.08
38033;BME280;23841;48.524;1.342;2023-04-24T06:27:00;98709.31;;;15.18;50.14
38033;BME280;23841;48.524;1.342;2023-04-24T06:29:27;98714.75;;;15.16;50.03
38033;BME280;23841;48.524;1.342;2023-04-24T06:31:52;98714.75;;;15.16;50.13
38033;BME280;23841;48.524;1.342;2023-04-24T06:34:18;98721.03;;;15.15;50.00
38033;BME280;23841;48.524;1.342;2023-04-24T06:36:43;98726.38;;;15.15;50.11
38033;BME280;23841;48.524;1.342;2023-04-24T06:39:09;98729.13;;;15.14;50.06
38033;BME280;23841;48.524;1.342;2023-04-24T06:41:34;98730.97;;;15.13;50.13
38033;BME280;23841;48.524;1.342;2023-04-24T06:44:00;98735.38;;;15.14;50.17
38033;BME280;23841;48.524;1.342;2023-04-24T06:46:27;98738.97;;;15.13;50.25
38033;BME280;23841;48.524;1.342;2023-04-24T06:48:55;98736.31;;;15.13;50.29
38033;BME280;23841;48.524;1.342;2023-04-24T06:51:24;98736.38;;;15.12;50.17
38033;BME280;23841;48.524;1.342;2023-04-24T06:53:54;98734.66;;;15.11;50.17
38033;BME280;23841;48.524;1.342;2023-04-24T06:56:21;98731.97;;;15.11;50.39
38033;BME280;23841;48.524;1.342;2023-04-24T06:58:46;98736.53;;;15.09;50.23
38033;BME280;23841;48.524;1.342;2023-04-24T07:01:12;98738.25;;;15.10;50.37
38033;BME280;23841;48.524;1.342;2023-04-24T07:03:37;98738.25;;;15.10;50.31
38033;BME280;23841;48.524;1.342;2023-04-24T07:06:04;98735.56;;;15.10;50.27
38033;BME280;23841;48.524;1.342;2023-04-24T07:08:30;98747.16;;;15.10;50.33
38033;BME280;23841;48.524;1.342;2023-04-24T07:10:59;98742.75;;;15.09;50.26
38033;BME280;23841;48.524;1.342;2023-04-24T07:13:24;98748.09;;;15.09;50.30
38033;BME280;23841;48.524;1.342;2023-04-24T07:15:50;98748.94;;;15.10;50.41
38033;BME280;23841;48.524;1.342;2023-04-24T07:18:17;98750.78;;;15.09;50.44
38033;BME280;23841;48.524;1.342;2023-04-24T07:20:43;98743.59;;;15.10;50.39
38033;BME280;23841;48.524;1.342;2023-04-24T07:23:10;98736.53;;;15.09;50.59
38033;BME280;23841;48.524;1.342;2023-04-24T07:25:35;98740.94;;;15.10;50.38
38033;BME280;23841;48.524;1.342;2023-04-24T07:28:00;98745.44;;;15.09;50.46
38033;BME280;23841;48.524;1.342;2023-04-24T07:30:26;98747.38;;;15.06;50.50
38033;BME280;23841;48.524;1.342;2023-04-24T07:32:53;98748.19;;;15.08;50.72
38033;BME280;23841;48.524;1.342;2023-04-24T07:35:19;98754.31;;;15.10;50.68
38033;BME280;23841;48.524;1.342;2023-04-24T07:37:45;98757.94;;;15.09;50.74
38033;BME280;23841;48.524;1.342;2023-04-24T07:40:14;98752.63;;;15.07;50.60
38033;BME280;23841;48.524;1.342;2023-04-24T07:42:39;98752.63;;;15.07;50.71
38033;BME280;23841;48.524;1.342;2023-04-24T07:45:06;98749.13;;;15.07;50.66
38033;BME280;23841;48.524;1.342;2023-04-24T07:47:32;98754.31;;;15.10;50.81
38033;BME280;23841;48.524;1.342;2023-04-24T07:49:58;98749.97;;;15.07;50.93
38033;BME280;23841;48.524;1.342;2023-04-24T07:52:24;98748.19;;;15.08;50.87
38033;BME280;23841;48.524;1.342;2023-04-24T07:54:49;98740.22;;;15.06;50.83
38033;BME280;23841;48.524;1.342;2023-04-24T07:57:16;98743.75;;;15.07;50.86
38033;BME280;23841;48.524;1.342;2023-04-24T07:59:41;98738.41;;;15.07;51.00
38033;BME280;23841;48.524;1.342;2023-04-24T08:02:07;98745.50;;;15.08;50.99
38033;BME280;23841;48.524;1.342;2023-04-24T08:04:33;98749.13;;;15.07;51.07
38033;BME280;23841;48.524;1.342;2023-04-24T08:06:58;98736.97;;;14.99;51.05
38033;BME280;23841;48.524;1.342;2023-04-24T08:09:24;98760.66;;;15.07;51.11
38033;BME280;23841;48.524;1.342;2023-04-24T08:11:50;98754.47;;;15.07;51.08
38033;BME280;23841;48.524;1.342;2023-04-24T08:14:16;98762.56;;;15.05;51.11
38033;BME280;23841;48.524;1.342;2023-04-24T08:16:42;98752.78;;;15.04;51.18
38033;BME280;23841;48.524;1.342;2023-04-24T08:19:07;98767.84;;;15.07;51.15
38033;BME280;23841;48.524;1.342;2023-04-24T08:21:33;98755.38;;;15.06;51.14
38033;BME280;23841;48.524;1.342;2023-04-24T08:23:58;98764.31;;;15.06;51.26
38033;BME280;23841;48.524;1.342;2023-04-24T08:26:24;98768.78;;;15.06;51.50
38033;BME280;23841;48.524;1.342;2023-04-24T08:28:49;98759.81;;;15.07;51.36
38033;BME280;23841;48.524;1.342;2023-04-24T08:31:15;98774.13;;;15.06;51.39
38033;BME280;23841;48.524;1.342;2023-04-24T08:33:41;98770.50;;;15.07;51.46
38033;BME280;23841;48.524;1.342;2023-04-24T08:36:07;98779.47;;;15.06;51.50
38033;BME280;23841;48.524;1.342;2023-04-24T08:38:33;98774.13;;;15.06;51.48
38033;BME280;23841;48.524;1.342;2023-04-24T08:41:00;98777.75;;;15.05;51.43
38033;BME280;23841;48.524;1.342;2023-04-24T08:43:26;98770.50;;;15.07;51.49
38033;BME280;23841;48.524;1.342;2023-04-24T08:45:54;98779.34;;;15.09;51.41
38033;BME280;23841;48.524;1.342;2023-04-24T08:48:22;98782.06;;;15.07;51.71
38033;BME280;23841;48.524;1.342;2023-04-24T08:50:48;98785.63;;;15.08;51.49
38033;BME280;23841;48.524;1.342;2023-04-24T08:53:15;98803.41;;;15.09;51.54
38033;BME280;23841;48.524;1.342;2023-04-24T08:55:41;98799.00;;;15.08;51.70
38033;BME280;23841;48.524;1.342;2023-04-24T08:58:08;98802.59;;;15.07;51.85
38033;BME280;23841;48.524;1.342;2023-04-24T09:00:34;98798.13;;;15.07;51.76
38033;BME280;23841;48.524;1.342;2023-04-24T09:03:00;98796.31;;;15.08;51.72
38033;BME280;23841;48.524;1.342;2023-04-24T09:05:27;98799.00;;;15.08;51.69
38033;BME280;23841;48.524;1.342;2023-04-24T09:07:56;98800.75;;;15.09;51.93
38033;BME280;23841;48.524;1.342;2023-04-24T09:10:24;98803.34;;;15.10;51.60
38033;BME280;23841;48.524;1.342;2023-04-24T09:12:51;98798.00;;;15.10;51.76
38033;BME280;23841;48.524;1.342;2023-04-24T09:15:18;98806.88;;;15.11;51.89
38033;BME280;23841;48.524;1.342;2023-04-24T09:17:44;98805.03;;;15.11;52.11
38033;BME280;23841;48.524;1.342;2023-04-24T09:20:10;98806.88;;;15.11;52.07
38033;BME280;23841;48.524;1.342;2023-04-24T09:22:36;98804.19;;;15.11;52.07
38033;BME280;23841;48.524;1.342;2023-04-24T09:25:04;98807.72;;;15.11;51.94
38033;BME280;23841;48.524;1.342;2023-04-24T09:27:31;98811.28;;;15.12;52.26
38033;BME280;23841;48.524;1.342;2023-04-24T09:29:57;98818.38;;;15.13;52.20
38033;BME280;23841;48.524;1.342;2023-04-24T09:32:23;98823.66;;;15.14;52.23
38033;BME280;23841;48.524;1.342;2023-04-24T09:35:05;98824.50;;;15.15;52.09
38033;BME280;23841;48.524;1.342;2023-04-24T09:37:39;98819.16;;;15.15;52.30
38033;BME280;23841;48.524;1.342;2023-04-24T09:40:11;98819.94;;;15.17;52.37
38033;BME280;23841;48.524;1.342;2023-04-24T09:42:38;98823.56;;;15.16;52.22
38033;BME280;23841;48.524;1.342;2023-04-24T09:45:09;98823.50;;;15.17;52.23
38033;BME280;23841;48.524;1.342;2023-04-24T09:47:39;98827.97;;;15.17;52.29
38033;BME280;23841;48.524;1.342;2023-04-24T09:50:15;98827.03;;;15.18;52.20
38033;BME280;23841;48.524;1.342;2023-04-24T09:52:46;98820.81;;;15.17;52.33
38033;BME280;23841;48.524;1.342;2023-04-24T09:55:18;98832.38;;;15.18;52.14
38033;BME280;23841;48.524;1.342;2023-04-24T09:58:00;98835.88;;;15.20;52.43
38033;BME280;23841;48.524;1.342;2023-04-24T10:02:59;98831.38;;;15.21;52.30
38033;BME280;23841;48.524;1.342;2023-04-24T10:05:31;98836.72;;;15.21;52.20
38033;BME280;23841;48.524;1.342;2023-04-24T10:08:07;98832.22;;;15.21;52.45
38033;BME280;23841;48.524;1.342;2023-04-24T10:10:34;98831.28;;;15.22;52.17
38033;BME280;23841;48.524;1.342;2023-04-24T10:13:00;98834.03;;;15.21;52.12
38033;BME280;23841;48.524;1.342;2023-04-24T10:15:27;98841.06;;;15.23;52.22
38033;BME280;23841;48.524;1.342;2023-04-24T10:17:53;98846.41;;;15.23;52.35
38033;BME280;23841;48.524;1.342;2023-04-24T10:20:20;98839.31;;;15.22;52.26
38033;BME280;23841;48.524;1.342;2023-04-24T10:22:52;98839.25;;;15.24;52.29
38033;BME280;23841;48.524;1.342;2023-04-24T10:25:21;98846.41;;;15.23;52.19
38033;BME280;23841;48.524;1.342;2023-04-24T10:27:48;98848.16;;;15.24;52.27
38033;BME280;23841;48.524;1.342;2023-04-24T10:30:15;98845.47;;;15.24;52.25
38033;BME280;23841;48.524;1.342;2023-04-24T10:32:40;98841.91;;;15.24;52.33
38033;BME280;23841;48.524;1.342;2023-04-24T10:35:07;98848.16;;;15.24;52.27
38033;BME280;23841;48.524;1.342;2023-04-24T10:37:54;98851.69;;;15.25;52.29
38033;BME280;23841;48.524;1.342;2023-04-24T10:40:32;98849.88;;;15.25;52.11
38033;BME280;23841;48.524;1.342;2023-04-24T10:43:05;98856.97;;;15.26;52.28
38033;BME280;23841;48.524;1.342;2023-04-24T10:45:35;98856.09;;;15.26;52.16
38033;BME280;23841;48.524;1.342;2023-04-24T10:48:05;98855.22;;;15.25;52.37
38033;BME280;23841;48.524;1.342;2023-04-24T10:51:01;98850.75;;;15.26;52.33
38033;BME280;23841;48.524;1.342;2023-04-24T10:53:28;98860.44;;;15.28;52.25
38033;BME280;23841;48.524;1.342;2023-04-24T10:55:58;98856.88;;;15.28;52.25
38033;BME280;23841;48.524;1.342;2023-04-24T10:58:35;98855.09;;;15.28;52.23
38033;BME280;23841;48.524;1.342;2023-04-24T11:01:01;98863.03;;;15.30;52.39
38033;BME280;23841;48.524;1.342;2023-04-24T11:03:28;98856.81;;;15.29;52.30
38033;BME280;23841;48.524;1.342;2023-04-24T11:06:05;98852.34;;;15.30;52.31
38033;BME280;23841;48.524;1.342;2023-04-24T11:08:40;98848.00;;;15.27;52.32
38033;BME280;23841;48.524;1.342;2023-04-24T11:11:17;98852.34;;;15.30;52.35
38033;BME280;23841;48.524;1.342;2023-04-24T11:21:54;98846.03;;;15.31;52.38
38033;BME280;23841;48.524;1.342;2023-04-24T11:32:42;98849.59;;;15.31;52.27
38033;BME280;23841;48.524;1.342;2023-04-24T11:37:44;98845.09;;;15.32;52.35
38033;BME280;23841;48.524;1.342;2023-04-24T11:40:20;98847.84;;;15.30;52.53
38033;BME280;23841;48.524;1.342;2023-04-24T11:42:49;98853.03;;;15.33;52.25
38033;BME280;23841;48.524;1.342;2023-04-24T11:45:21;98851.19;;;15.35;52.39
38033;BME280;23841;48.524;1.342;2023-04-24T11:47:47;98847.69;;;15.33;52.43
38033;BME280;23841;48.524;1.342;2023-04-24T11:50:14;98854.78;;;15.34;52.65
38033;BME280;23841;48.524;1.342;2023-04-24T11:52:43;98851.19;;;15.35;52.43
38033;BME280;23841;48.524;1.342;2023-04-24T11:57:43;98855.59;;;15.36;52.75
38033;BME280;23841;48.524;1.342;2023-04-24T12:00:15;98854.63;;;15.38;52.95
38033;BME280;23841;48.524;1.342;2023-04-24T12:02:42;98858.19;;;15.38;52.87
38033;BME280;23841;48.524;1.342;2023-04-24T12:05:19;98844.81;;;15.38;52.96
38033;BME280;23841;48.524;1.342;2023-04-24T12:07:44;98845.66;;;15.39;52.97
38033;BME280;23841;48.524;1.342;2023-04-24T12:10:10;98853.63;;;15.40;53.04
38033;BME280;23841;48.524;1.342;2023-04-24T12:12:36;98857.09;;;15.42;53.29
38033;BME280;23841;48.524;1.342;2023-04-24T12:15:07;98845.44;;;15.43;53.07
38033;BME280;23841;48.524;1.342;2023-04-24T12:17:34;98849.94;;;15.43;53.13
38033;BME280;23841;48.524;1.342;2023-04-24T12:20:05;98847.25;;;15.43;53.05
38033;BME280;23841;48.524;1.342;2023-04-24T12:22:50;98850.88;;;15.42;53.09
38033;BME280;23841;48.524;1.342;2023-04-24T12:25:19;98847.25;;;15.43;52.87
38033;BME280;23841;48.524;1.342;2023-04-24T12:27:46;98849.06;;;15.42;52.89
38033;BME280;23841;48.524;1.342;2023-04-24T12:30:14;98841.91;;;15.43;52.96
38033;BME280;23841;48.524;1.342;2023-04-24T12:32:48;98844.66;;;15.41;52.90
38033;BME280;23841;48.524;1.342;2023-04-24T12:35:18;98841.91;;;15.43;53.14
38033;BME280;23841;48.524;1.342;2023-04-24T12:37:44;98839.16;;;15.44;53.10
38033;BME280;23841;48.524;1.342;2023-04-24T12:40:12;98834.66;;;15.45;52.92
38033;BME280;23841;48.524;1.342;2023-04-24T12:42:45;98837.28;;;15.46;52.82
38033;BME280;23841;48.524;1.342;2023-04-24T12:45:12;98827.44;;;15.47;52.82
38033;BME280;23841;48.524;1.342;2023-04-24T12:47:39;98835.47;;;15.47;52.90
38033;BME280;23841;48.524;1.342;2023-04-24T12:50:07;98830.97;;;15.47;52.90
38033;BME280;23841;48.524;1.342;2023-04-24T12:52:32;98831.84;;;15.48;53.04
38033;BME280;23841;48.524;1.342;2023-04-24T12:54:59;98832.78;;;15.47;53.00
38033;BME280;23841;48.524;1.342;2023-04-24T12:57:27;98835.38;;;15.48;52.85
38033;BME280;23841;48.524;1.342;2023-04-24T12:59:58;98840.66;;;15.50;52.94
38033;BME280;23841;48.524;1.342;2023-04-24T13:02:25;98839.78;;;15.49;53.05
38033;BME280;23841;48.524;1.342;2023-04-24T13:04:51;98846.00;;;15.50;53.02
38033;BME280;23841;48.524;1.342;2023-04-24T13:07:16;98836.22;;;15.49;52.83
38033;BME280;23841;48.524;1.342;2023-04-24T13:09:43;98832.69;;;15.48;52.94
38033;BME280;23841;48.524;1.342;2023-04-24T13:12:09;98823.81;;;15.48;53.18
38033;BME280;23841;48.524;1.342;2023-04-24T13:14:35;98812.16;;;15.49;52.94
38033;BME280;23841;48.524;1.342;2023-04-24T13:17:01;98806.75;;;15.50;52.95
38033;BME280;23841;48.524;1.342;2023-04-24T13:19:28;98807.59;;;15.51;52.90
38033;BME280;23841;48.524;1.342;2023-04-24T13:21:55;98799.56;;;15.51;52.90